航空気象通報

ウインドサーファーのための航空気象通報による風予報です。

5/17-5/19の航空気象通報

2017年05月17日 23時44分36秒 | TAF
羽田空港
TAF RJTT 171105Z 1712/1818 01008KT 9999 FEW015 BKN025
BECMG 1803/1806 08012KT
BECMG 1812/1815 05006KT
日本時間17日21時-18日12時:010度から8ノットの風
12-15時:風が変化
15-21時:080度から12ノットの風
21-24時:風が変化
19日00-03時:050度から6ノットの風


静岡空港
TAF RJNS 171105Z 1712/1818 34004KT 9999 FEW015 BKN030
BECMG 1800/1803 18012KT
BECMG 1812/1815 32004KT
TEMPO 1815/1818 FEW003 BKN005
日本時間17日21時-18日09時:340度から4ノットの風
09-12時:風が変化
12-21時:180度から12ノットの風
21-24時:風が変化
19日00-03時:320度から4ノットの風


福岡空港
TAF RJFF 171105Z 1712/1818 34005KT 9999 FEW035
BECMG 1714/1716 16004KT
BECMG 1800/1803 31011KT
BECMG 1812/1815 16003KT
日本時間17日21-23時:340度から5ノットの風
23時-18日01時:風が変化
01-09時:160度から4ノットの風
09-12時:風が変化
12-21時:310度から11ノットの風
21-24時:風が変化
19日00-03時:160度から3ノットの風


那覇空港
TAF ROAH 171105Z 1712/1818 04007KT 9999 FEW020
日本時間17日21時-19日03時:040度から7ノットの風


石垣空港
TAF ROIG 171107Z 1712/1818 06012KT 9999 FEW020 BKN035
日本時間17日21時-19日03時:060度から12ノットの風


マウイのカフルイ空港
PHOG 171138Z 1712/1812 05010G17KT P6SM SKC
FM171500 05010KT P6SM VCSH SCT030 BKN050
FM171900 05012G18KT P6SM FEW030 SCT050
FM172200 05020G29KT P6SM FEW030 SCT050
FM180400 05014G20KT P6SM SCT050
FM181000 05011KT P6SM SKC AMD LTD TO VIS AND WIND TIL 171600
ハワイ時間17日02-05時:050度から10ノット、突風17ノット

05-09時:050度から10ノットの風

09-12時:050度から12ノット、突風18ノット
12-18時:050度から20ノット、突風29ノット
18-24時:050度から14ノット、突風20ノット
18日00-02時:050度から11ノットの風


サイパン空港
TAF PGSN 171120Z 1712/1812 10010KT P6SM VCSH FEW020 SCT050
FM172300 10014G20KT P6SM VCSH SCT020 SCT050
マリアナ時間17日22時-18日08時:100度から10ノットの風
08-22時:100度から14ノット、突風20ノット

ジャンル:
お天気
コメント   この記事についてブログを書く
この記事をはてなブックマークに追加
« 5/16-5/18の航空気象通報 | トップ | 5/18-5/20の航空気象通報 »
最近の画像もっと見る

コメントを投稿

ブログ作成者から承認されるまでコメントは反映されません。

コメント利用規約に同意の上コメント投稿を行ってください。

数字4桁を入力し、投稿ボタンを押してください。

あわせて読む

トラックバック

この記事のトラックバック  Ping-URL
ブログ作成者から承認されるまでトラックバックは反映されません。
  • 30日以上前の記事に対するトラックバックは受け取らないよう設定されております。
  • 送信元の記事内容が半角英数のみのトラックバックは受け取らないよう設定されております。
  • このブログへのリンクがない記事からのトラックバックは受け取らないよう設定されております。
  • ※ブログ管理者のみ、編集画面で設定の変更が可能です。